Route Details

Aircraft Information
Group: European Fleet
Types: A30F, B738
Route Data
Distance: 347nm
Duration: 1h 05m
Origin METAR: EDDK 260250Z AUTO 17003KT CAVOK 10/10 Q1017 NOSIG
Dest. METAR: EKCH 260250Z 03006KT 9999 NSC 14/12 Q1020 NOSIG
Freight Data
(for May 26, 2024)
Load Factor:
33%
Manifested Cargo: 30,541lbs
Financial History
Total Freight: 906,198lbs
Average Load: 0lbs/flt
Fuel Used: 180,849lbs
Avg. Fuel Used: 0lbs/flt
Fuel Expense: $83,523
Avg. Fuel Expense: $0
Avg. Fuel Cost: $0/lbs
Total Gross Income: $2,034,211
Pilot Pay: $3,764
Total Expenses: $386,100
Total Revenue: $1,557,497
Average Revenue: $0

Capitol Logistics 583




EDDK
Cologne Bonn Airport
Cologne, DE
EKCH
Copenhagen Kastrup Airport
Copenhagen, DK

Activity Log

Date Flight Route Aircraft Duration
11/26/2023 CPX583 PODIP1C PODIP Y867 PELUN ANZIV WRB Y867 TOLGI ELKIM MAKEL N851 GESKA Z711 MONAK A30F 1h 03m
06/08/2023 CPX583 PODI1C PODIP Y867 PELUN DCT ANZIV DCT WRB Y867 TOLGI DCT ELKIM DCT MAKEL N851 GESKA Z711 MONAK MONA3C A30F 1h 19m
04/29/2023 CPX583 PODI5D PODIP Y867 PELUN DCT ANZIV DCT WRB Y867 TOLGI DCT ELKIM DCT MAKEL N851 GESKA Z711 MONAK MONA3C B738 1h 19m
04/25/2023 CPX583 PODI8B PODIP Y867 PELUN DCT ANZIV DCT WRB Y867 TOLGI DCT ELKIM DCT MAKEL N851 GESKA Z711 MONAK MONA3C B738 1h 24m
03/19/2023 CPX583 PODI8F PODIP Y867 PELUN DCT ANZIV DCT WRB Y867 TOLGI DCT ELKIM DCT MAKEL N851 GESKA Z711 MONAK MONA3A B738 1h 25m
12/20/2022 CPX583 PODIP8F PODIP Y867 TOLGI ELKIM MAKEL N851 GESKA Z711 MONAK MONAK1N A31F 1h 12m
10/04/2022 CPX583 PODI3X PODIP Y867 PELUN DCT ANZIV DCT WRB Y867 TOLGI DCT ELKIM DCT MAKEL N851 GESKA Z711 MONAK MONA1N A30F 1h 14m
08/12/2022 CPX583 PODI8F PODIP Y867 PELUN DCT ANZIV DCT WRB Y867 TOLGI DCT ELKIM DCT MAKEL N851 GESKA Z711 MONAK MONA2C A31F 1h 17m
07/27/2022 CPX583 PODI7K PODIP Y867 PELUN DCT ANZIV DCT WRB Y867 TOLGI DCT ELKIM DCT MAKEL N851 GESKA Z711 MONAK MONA1N A31F 1h 20m
07/23/2022 CPX583 PODI8B PODIP Y867 PELUN DCT ANZIV DCT WRB Y867 TOLGI DCT ELKIM DCT MAKEL N851 GESKA Z711 MONAK MONA2C B738 1h 34m
07/21/2022 CPX583 PODI8B PODIP Y867 PELUN DCT ANZIV DCT WRB Y867 TOLGI DCT ELKIM DCT MAKEL N851 GESKA Z711 MONAK MONA2C B738 1h 25m
07/12/2022 CPX583 PODIP1Q PODIP Y867 PELUN ANZIV WRB Y867 TOLGI ELKIM MAKEL N851 GESKA Z711 MONAK MONAK1N B738 1h 25m
07/08/2022 CPX583 Not Available B738 1h 15m
02/13/2022 CPX925 PODI1Q PODIP Y867 PELUN ANZIV WRB Y867 TOLGI ELKIM MAKEL N851 GESKA Z711 MONAK MONA1N A30F 1h 11m
10/31/2021 CPX914 PODI8B PODIP Y867 TOLGI ELKIM MAKEL N851 GESKA Z711 MONAK MONA2D A31F 1h 09m
09/30/2021 CPX914 PODI1Q PODIP Y867 TOLGI DLE P605 GESKA Z711 MONAK MONA1N A30F 1h 20m